Time;durP1;ratioP1;P1;durP2;ratioP2;P2;SDS_P1;SDS_P2;PMS_P1;PMS_P2;Temp;Humidity;BMP_temperature;BMP_pressure;BME280_temperature;BME280_humidity;BME280_pressure;Samples;Min_cycle;Max_cycle;Signal;HPM_P1;HPM_P2
2023/02/08 00:00:20;;;;;;;9.87;7.50;;;;;;;-1.82;48.48;98041.72;4949446;28;20720;-68
2023/02/08 00:02:45;;;;;;;15.27;7.63;;;;;;;-1.80;48.48;98025.50;4949225;28;20418;-67
2023/02/08 00:05:11;;;;;;;11.77;6.80;;;;;;;-1.60;47.62;98023.56;4948955;28;20573;-67
2023/02/08 00:07:36;;;;;;;10.70;7.50;;;;;;;-1.51;48.19;98023.81;4948869;28;20201;-67
2023/02/08 00:10:04;;;;;;;10.63;7.03;;;;;;;-1.62;47.89;98014.91;4949182;28;20233;-68
2023/02/08 00:12:29;;;;;;;9.20;6.83;;;;;;;-1.59;47.64;98007.25;4949058;28;20260;-68
2023/02/08 00:14:54;;;;;;;10.07;6.57;;;;;;;-1.49;47.78;98010.97;4948953;29;20553;-67
2023/02/08 00:17:20;;;;;;;12.03;7.97;;;;;;;-1.53;48.19;98007.47;4948777;28;20194;-67
2023/02/08 00:19:45;;;;;;;11.87;7.37;;;;;;;-1.59;48.23;98008.97;4949084;29;20931;-67
2023/02/08 00:22:11;;;;;;;9.13;7.20;;;;;;;-1.61;48.97;98003.75;4948830;28;20197;-67
2023/02/08 00:24:36;;;;;;;9.83;7.03;;;;;;;-1.51;48.11;98003.22;4948977;28;20174;-67
2023/02/08 00:27:02;;;;;;;9.67;6.40;;;;;;;-1.52;47.70;97995.44;4948642;28;20197;-67
2023/02/08 00:29:27;;;;;;;10.27;6.90;;;;;;;-1.63;48.03;97995.16;4967137;28;20181;-67
2023/02/08 00:31:52;;;;;;;11.10;7.63;;;;;;;-1.62;47.64;97994.31;4968298;28;20177;-66
2023/02/08 00:34:18;;;;;;;9.77;7.30;;;;;;;-2.04;48.66;97999.91;4968191;28;20537;-67
2023/02/08 00:36:43;;;;;;;8.87;6.77;;;;;;;-1.99;49.39;97993.19;4967494;28;20292;-68
2023/02/08 00:39:08;;;;;;;10.50;7.90;;;;;;;-1.97;48.23;97995.81;4967920;28;20181;-68
2023/02/08 00:41:34;;;;;;;10.43;6.43;;;;;;;-1.81;48.70;97997.16;4968100;28;20166;-68
2023/02/08 00:43:59;;;;;;;13.83;7.87;;;;;;;-1.78;47.43;98004.97;4967950;28;20571;-67
2023/02/08 00:46:25;;;;;;;8.63;7.27;;;;;;;-1.73;48.03;97993.13;4967806;28;20170;-67
2023/02/08 00:48:50;;;;;;;14.23;7.40;;;;;;;-1.64;47.52;97988.25;4967752;28;20193;-67
2023/02/08 00:51:16;;;;;;;11.93;7.27;;;;;;;-1.64;48.28;97995.97;4972331;28;20259;-66
2023/02/08 00:53:44;;;;;;;11.00;8.80;;;;;;;-1.93;48.63;97993.38;4979387;28;20304;-67
2023/02/08 00:56:11;;;;;;;8.93;7.57;;;;;;;-1.83;48.92;97991.97;4970618;28;20288;-68
2023/02/08 00:58:37;;;;;;;11.90;7.80;;;;;;;-1.79;47.54;97992.94;4968363;28;20829;-67
2023/02/08 01:01:04;;;;;;;11.43;8.40;;;;;;;-1.75;48.76;97987.03;4968109;28;20409;-68
2023/02/08 01:03:32;;;;;;;11.53;6.97;;;;;;;-1.84;48.01;97982.50;4967615;28;20235;-68
2023/02/08 01:06:02;;;;;;;9.80;7.80;;;;;;;-1.79;47.90;97983.53;4967637;28;20496;-69
2023/02/08 01:08:28;;;;;;;14.60;8.40;;;;;;;-1.72;47.69;97982.88;4967920;28;20445;-68
2023/02/08 01:11:08;;;;;;;10.63;7.30;;;;;;;-1.58;48.03;97997.88;4968001;28;20406;-68
2023/02/08 01:13:35;;;;;;;16.73;8.20;;;;;;;-1.66;48.42;97983.88;4967917;28;20611;-68
2023/02/08 01:16:18;;;;;;;11.67;8.00;;;;;;;-1.67;48.26;97985.59;4967516;28;20497;-67
2023/02/08 01:18:46;;;;;;;14.70;8.67;;;;;;;-1.85;48.66;97992.75;4967690;28;20425;-67
2023/02/08 01:21:14;;;;;;;14.43;9.90;;;;;;;-2.03;49.84;97993.94;4967784;28;20507;-68
2023/02/08 01:23:41;;;;;;;12.43;7.73;;;;;;;-2.21;48.78;98001.06;4967812;28;20405;-67
2023/02/08 01:26:07;;;;;;;9.93;7.30;;;;;;;-2.32;50.43;98005.00;4967744;28;21218;-67
2023/02/08 01:28:33;;;;;;;9.40;7.13;;;;;;;-2.51;50.56;97999.25;4956832;28;20434;-67
2023/02/08 01:30:59;;;;;;;11.47;7.73;;;;;;;-2.45;51.24;97999.47;4948671;28;20406;-67
2023/02/08 01:33:24;;;;;;;11.13;8.57;;;;;;;-2.73;52.13;98000.22;4949303;28;20562;-66
2023/02/08 01:35:51;;;;;;;11.20;8.50;;;;;;;-2.57;51.85;97997.34;4951724;28;20198;-66
2023/02/08 01:38:17;;;;;;;11.03;8.30;;;;;;;-2.50;50.47;97989.81;4951970;28;20208;-66
2023/02/08 01:40:42;;;;;;;12.33;8.20;;;;;;;-2.16;50.51;97991.81;4952012;28;20421;-66
2023/02/08 01:43:22;;;;;;;13.20;9.23;;;;;;;-2.06;50.76;97983.53;4951831;28;20587;-66
2023/02/08 01:45:48;;;;;;;11.50;8.47;;;;;;;-2.35;50.72;97993.78;4951530;28;20173;-68
2023/02/08 01:48:21;;;;;;;11.07;8.47;;;;;;;-2.36;51.74;97986.91;4951503;28;20437;-67
2023/02/08 01:50:51;;;;;;;12.20;8.67;;;;;;;-2.60;51.27;97994.69;4951782;28;20182;-66
2023/02/08 01:53:17;;;;;;;10.50;7.37;;;;;;;-3.03;53.44;97993.22;4951554;28;20502;-67
2023/02/08 01:55:48;;;;;;;12.30;7.63;;;;;;;-3.00;54.11;97983.06;4951276;29;20465;-67
2023/02/08 01:58:16;;;;;;;12.23;9.07;;;;;;;-3.04;54.13;97986.34;4951533;28;20194;-67
2023/02/08 02:00:42;;;;;;;14.17;9.97;;;;;;;-3.09;54.73;97985.31;4951512;28;20453;-67
2023/02/08 02:03:07;;;;;;;15.10;8.67;;;;;;;-2.75;54.24;97980.44;4951217;28;20421;-67
2023/02/08 02:05:40;;;;;;;9.47;7.53;;;;;;;-3.11;55.06;97975.81;4951170;28;20173;-67
2023/02/08 02:08:06;;;;;;;15.80;9.60;;;;;;;-3.20;54.92;97984.91;4951374;28;20182;-67
2023/02/08 02:10:33;;;;;;;19.23;9.10;;;;;;;-3.04;55.95;97981.19;4951334;28;21199;-67
2023/02/08 02:13:06;;;;;;;13.10;9.40;;;;;;;-3.42;57.46;97979.84;4951230;28;20348;-66
2023/02/08 02:15:32;;;;;;;14.30;9.23;;;;;;;-3.63;58.81;97978.25;4951334;28;21018;-68
2023/02/08 02:17:59;;;;;;;13.23;9.87;;;;;;;-3.56;58.34;97978.47;4950840;28;20429;-68
2023/02/08 02:20:24;;;;;;;15.27;11.50;;;;;;;-3.27;57.55;97980.38;4951275;28;21089;-67
2023/02/08 02:23:08;;;;;;;15.30;10.37;;;;;;;-3.72;58.59;97971.91;4951134;29;20417;-66
2023/02/08 02:25:36;;;;;;;13.13;9.83;;;;;;;-3.66;59.06;97980.69;4951018;29;20178;-67
2023/02/08 02:28:36;;;;;;;14.03;10.20;;;;;;;-4.05;60.16;97974.94;4957589;28;20455;-66
2023/02/08 02:31:46;;;;;;;12.20;10.30;;;;;;;-3.82;60.03;97980.94;4970192;28;20464;-67
2023/02/08 02:34:21;;;;;;;15.30;10.20;;;;;;;-3.53;59.44;97976.00;4974073;28;20519;-67
2023/02/08 02:36:46;;;;;;;16.60;10.50;;;;;;;-3.74;59.71;97976.97;4969817;28;21341;-69
2023/02/08 02:39:30;;;;;;;19.40;11.57;;;;;;;-3.89;60.37;97976.41;4970035;28;20460;-65
2023/02/08 02:44:53;;;;;;;16.73;11.00;;;;;;;-3.55;59.49;97967.38;4969944;28;20778;-67
2023/02/08 02:47:51;;;;;;;18.57;11.97;;;;;;;-3.52;59.79;97977.75;4969624;28;20441;-67
2023/02/08 02:50:27;;;;;;;14.23;10.80;;;;;;;-3.73;59.72;97973.59;4969896;28;20697;-67
2023/02/08 02:53:27;;;;;;;17.40;11.00;;;;;;;-3.91;61.45;97970.34;4969874;28;20404;-67
2023/02/08 02:56:03;;;;;;;17.33;11.20;;;;;;;-4.13;61.81;97968.66;4969537;28;20461;-68
2023/02/08 02:58:31;;;;;;;17.60;11.63;;;;;;;-4.24;62.55;97967.34;4969827;28;20507;-67
2023/02/08 03:00:58;;;;;;;19.27;11.67;;;;;;;-3.95;62.24;97966.75;4969708;28;20416;-67
2023/02/08 03:03:30;;;;;;;23.27;11.07;;;;;;;-4.09;61.94;97961.09;4969612;28;20432;-67
2023/02/08 03:06:06;;;;;;;25.57;13.70;;;;;;;-4.27;62.97;97968.09;4969301;28;20409;-68
2023/02/08 03:09:09;;;;;;;18.10;11.17;;;;;;;-4.10;62.23;97969.63;4969568;28;20486;-67
2023/02/08 03:11:35;;;;;;;16.30;12.10;;;;;;;-4.14;62.77;97970.31;4969444;28;20436;-68
2023/02/08 03:14:16;;;;;;;17.23;12.20;;;;;;;-4.18;62.53;97971.03;4969338;28;20459;-68
2023/02/08 03:16:55;;;;;;;15.57;12.30;;;;;;;-4.27;62.42;97968.09;4968937;28;20607;-68
2023/02/08 03:19:35;;;;;;;17.70;12.90;;;;;;;-4.63;64.61;97983.75;4969458;28;20405;-67
2023/02/08 03:22:11;;;;;;;23.20;12.67;;;;;;;-4.68;64.68;97972.44;4969620;28;20428;-69
2023/02/08 03:24:50;;;;;;;22.10;12.37;;;;;;;-4.64;64.79;97969.19;4968947;28;21038;-68
2023/02/08 03:27:40;;;;;;;24.00;12.97;;;;;;;-4.67;63.87;97981.88;4968768;28;21049;-68
2023/02/08 03:30:38;;;;;;;23.30;11.80;;;;;;;-4.48;63.85;97973.25;4969150;28;20914;-67
2023/02/08 03:33:20;;;;;;;17.37;11.63;;;;;;;-4.40;63.59;97976.97;4972249;28;20922;-67
2023/02/08 03:36:19;;;;;;;21.07;13.27;;;;;;;-4.38;63.20;97972.78;4968809;28;20470;-67
2023/02/08 03:38:46;;;;;;;17.83;11.87;;;;;;;-4.50;63.83;97965.50;4968798;28;20448;-67
2023/02/08 03:41:18;;;;;;;19.97;12.50;;;;;;;-4.62;63.95;97975.25;4968954;28;20519;-67
2023/02/08 03:44:02;;;;;;;24.20;12.90;;;;;;;-4.75;64.71;97973.00;4968795;28;20405;-67
2023/02/08 03:46:35;;;;;;;18.60;12.53;;;;;;;-4.79;64.79;97968.56;4968467;28;20419;-67
2023/02/08 03:49:10;;;;;;;20.93;13.60;;;;;;;-4.85;64.93;97953.81;4968932;28;20410;-67
2023/02/08 03:51:40;;;;;;;18.20;11.67;;;;;;;-4.80;64.60;97964.25;4968830;28;20989;-67
2023/02/08 03:54:14;;;;;;;16.50;10.77;;;;;;;-4.62;63.50;97959.88;4968557;28;20803;-67
2023/02/08 03:56:48;;;;;;;20.00;11.47;;;;;;;-4.45;62.84;97965.69;4967912;28;20464;-67
2023/02/08 03:59:21;;;;;;;17.13;11.60;;;;;;;-4.59;62.85;97965.13;4968668;28;20413;-68
2023/02/08 04:01:56;;;;;;;22.20;12.97;;;;;;;-4.45;63.07;97960.56;4968397;28;20473;-68
2023/02/08 04:04:23;;;;;;;18.73;13.00;;;;;;;-4.56;62.69;97969.50;4968304;28;20404;-68
2023/02/08 04:06:49;;;;;;;22.30;13.87;;;;;;;-4.60;62.92;97959.97;4968166;28;20416;-68
2023/02/08 04:09:14;;;;;;;22.47;12.33;;;;;;;-4.56;63.90;97960.13;4968578;28;20417;-67
2023/02/08 04:11:40;;;;;;;22.63;12.93;;;;;;;-4.74;63.00;97956.81;4968433;28;20200;-67
2023/02/08 04:14:05;;;;;;;20.03;12.97;;;;;;;-4.28;62.23;97943.28;4968524;28;20177;-67
2023/02/08 04:16:30;;;;;;;20.27;12.50;;;;;;;-4.14;61.78;97943.81;4967955;28;20206;-66
2023/02/08 04:18:56;;;;;;;19.23;13.07;;;;;;;-4.28;62.38;97936.44;4968322;28;20916;-66
2023/02/08 04:21:21;;;;;;;18.57;13.40;;;;;;;-4.40;62.28;97947.94;4968408;28;20189;-67
2023/02/08 04:23:47;;;;;;;25.50;13.73;;;;;;;-4.32;62.49;97944.00;4968072;28;20173;-67
2023/02/08 04:26:12;;;;;;;22.37;13.10;;;;;;;-4.43;62.44;97937.56;4967866;28;20170;-67
2023/02/08 04:28:37;;;;;;;20.00;13.13;;;;;;;-4.59;62.09;97944.63;4968206;28;20252;-67
2023/02/08 04:31:03;;;;;;;21.13;14.93;;;;;;;-4.32;62.45;97938.88;4968224;28;20264;-67
2023/02/08 04:33:28;;;;;;;24.60;14.67;;;;;;;-4.26;62.29;97928.84;4968203;28;20177;-68
2023/02/08 04:35:54;;;;;;;17.40;12.20;;;;;;;-4.15;62.21;97931.81;4967695;28;20205;-67
2023/02/08 04:38:19;;;;;;;17.40;11.40;;;;;;;-4.23;61.66;97928.94;4967748;28;20205;-67
2023/02/08 04:40:44;;;;;;;28.07;15.53;;;;;;;-4.36;61.50;97942.97;4968026;28;20173;-67
2023/02/08 04:43:10;;;;;;;15.87;12.20;;;;;;;-4.47;62.95;97937.41;4968133;28;20176;-67
2023/02/08 04:45:36;;;;;;;16.80;11.37;;;;;;;-4.77;63.03;97929.41;4968013;28;20219;-67
2023/02/08 04:48:03;;;;;;;21.73;13.70;;;;;;;-4.72;63.40;97932.16;4968192;28;20981;-67
2023/02/08 04:50:28;;;;;;;20.37;13.60;;;;;;;-4.74;63.45;97926.09;4968499;28;20821;-67
2023/02/08 04:52:54;;;;;;;19.53;13.40;;;;;;;-4.63;62.81;97926.50;4968381;28;20560;-67
2023/02/08 04:55:19;;;;;;;18.67;13.93;;;;;;;-4.80;63.31;97929.25;4968338;28;20202;-67
2023/02/08 04:57:45;;;;;;;23.90;13.00;;;;;;;-4.61;63.43;97925.75;4968056;28;20212;-67
2023/02/08 05:00:11;;;;;;;18.57;12.50;;;;;;;-4.46;61.85;97920.38;4967072;28;20186;-67
2023/02/08 05:02:38;;;;;;;21.73;12.40;;;;;;;-4.66;62.77;97926.41;4967058;28;20192;-68
2023/02/08 05:05:03;;;;;;;20.80;12.87;;;;;;;-4.72;62.02;97914.22;4967880;28;20419;-67
2023/02/08 05:07:29;;;;;;;18.80;12.97;;;;;;;-4.58;62.29;97925.00;4967705;28;20445;-68
2023/02/08 05:09:55;;;;;;;19.40;12.97;;;;;;;-4.76;63.29;97922.59;4970632;28;20340;-68
2023/02/08 05:12:20;;;;;;;19.50;12.33;;;;;;;-4.63;62.75;97919.72;4971652;28;20561;-68
2023/02/08 05:14:45;;;;;;;18.47;12.93;;;;;;;-4.85;62.56;97919.66;4971647;28;20169;-68
2023/02/08 05:17:11;;;;;;;23.03;14.10;;;;;;;-4.97;63.90;97914.91;4971255;28;20368;-67
2023/02/08 05:19:36;;;;;;;21.27;14.13;;;;;;;-4.72;62.09;97916.78;4971515;28;20181;-67
2023/02/08 05:22:02;;;;;;;18.40;12.53;;;;;;;-4.69;62.69;97916.91;4953342;28;20182;-68
2023/02/08 05:24:27;;;;;;;23.63;11.90;;;;;;;-4.55;61.88;97920.03;4952051;28;20908;-67
2023/02/08 05:26:53;;;;;;;22.40;12.83;;;;;;;-4.56;61.87;97924.28;4951797;28;20194;-67
2023/02/08 05:29:18;;;;;;;19.07;11.97;;;;;;;-4.53;61.36;97937.19;4968934;28;20166;-67
2023/02/08 05:31:43;;;;;;;19.90;11.03;;;;;;;-4.74;61.87;97934.66;4971338;28;20169;-67
2023/02/08 05:34:11;;;;;;;23.47;12.90;;;;;;;-4.87;62.50;97928.97;4966781;28;20166;-67
2023/02/08 05:36:37;;;;;;;21.90;12.83;;;;;;;-4.89;62.94;97934.00;4969733;28;20244;-67
2023/02/08 05:39:03;;;;;;;20.37;12.87;;;;;;;-4.83;63.23;97929.16;4967618;28;20538;-67
2023/02/08 05:41:28;;;;;;;21.00;12.83;;;;;;;-4.82;63.22;97930.88;4968557;28;20627;-67
2023/02/08 05:43:54;;;;;;;23.90;13.80;;;;;;;-5.09;62.73;97930.63;4968621;28;20413;-66
2023/02/08 05:46:19;;;;;;;18.10;12.70;;;;;;;-5.00;63.33;97941.25;4966845;28;20651;-66
2023/02/08 05:48:45;;;;;;;21.50;13.50;;;;;;;-4.88;63.68;97948.56;4967562;28;20260;-67
2023/02/08 05:51:11;;;;;;;25.33;14.20;;;;;;;-4.77;62.43;97942.22;4962439;28;20205;-68
2023/02/08 05:53:37;;;;;;;21.87;13.73;;;;;;;-4.80;62.57;97949.75;4966478;28;20476;-68
2023/02/08 05:56:03;;;;;;;16.90;12.87;;;;;;;-4.86;63.13;97951.22;4967198;28;20240;-70
2023/02/08 05:58:29;;;;;;;25.40;14.00;;;;;;;-5.26;64.33;97952.09;4967858;28;20433;-68
2023/02/08 06:00:55;;;;;;;18.80;12.90;;;;;;;-4.83;63.36;97948.75;4968256;28;20500;-69
2023/02/08 06:03:20;;;;;;;19.47;11.77;;;;;;;-4.80;63.23;97946.31;4968105;28;20421;-69
2023/02/08 06:05:46;;;;;;;25.60;14.47;;;;;;;-5.30;63.86;97952.75;4967395;28;20452;-68
2023/02/08 06:08:11;;;;;;;23.97;16.87;;;;;;;-5.03;62.79;97953.03;4967920;28;20737;-68
2023/02/08 06:10:36;;;;;;;20.67;12.60;;;;;;;-5.02;62.95;97949.69;4968606;28;20236;-68
2023/02/08 06:13:03;;;;;;;27.40;16.07;;;;;;;-5.03;63.09;97955.59;4967205;28;20256;-69
2023/02/08 06:15:29;;;;;;;18.33;13.83;;;;;;;-5.01;63.09;97953.97;4966370;28;20205;-69
2023/02/08 06:17:55;;;;;;;18.73;13.63;;;;;;;-5.09;63.72;97951.13;4968396;28;20440;-68
2023/02/08 06:20:20;;;;;;;22.47;15.10;;;;;;;-5.07;63.83;97948.63;4967873;28;20170;-68
2023/02/08 06:22:46;;;;;;;29.77;14.53;;;;;;;-4.93;62.38;97942.41;4967834;28;20677;-69
2023/02/08 06:25:11;;;;;;;22.70;14.90;;;;;;;-5.05;63.33;97950.44;4968321;28;20764;-69
2023/02/08 06:27:37;;;;;;;22.20;13.87;;;;;;;-4.99;63.53;97943.00;4964174;28;20190;-70
2023/02/08 06:30:03;;;;;;;18.17;13.73;;;;;;;-4.99;63.21;97947.25;4960371;28;20173;-68
2023/02/08 06:32:28;;;;;;;22.27;15.23;;;;;;;-5.01;63.89;97947.16;4965906;28;20284;-68
2023/02/08 06:34:54;;;;;;;21.90;14.30;;;;;;;-4.82;63.57;97955.63;4966128;28;20515;-68
2023/02/08 06:37:19;;;;;;;25.27;14.13;;;;;;;-5.00;62.30;97956.63;4963631;28;20201;-70
2023/02/08 06:39:45;;;;;;;22.77;15.17;;;;;;;-4.88;63.51;97957.94;4966387;28;20190;-67
2023/02/08 06:42:10;;;;;;;19.73;15.43;;;;;;;-5.10;62.86;97954.50;4981464;28;20186;-68
2023/02/08 06:44:36;;;;;;;20.07;13.50;;;;;;;-4.88;63.49;97950.28;4966693;28;20329;-69
2023/02/08 06:47:02;;;;;;;27.43;15.50;;;;;;;-5.02;62.70;97947.13;4970386;28;20547;-68
2023/02/08 06:49:28;;;;;;;18.87;13.70;;;;;;;-4.62;61.84;97949.63;4960659;28;20217;-69
2023/02/08 06:51:53;;;;;;;19.23;12.90;;;;;;;-4.22;61.14;97958.03;4964739;28;20443;-69
2023/02/08 06:54:18;;;;;;;24.37;15.23;;;;;;;-3.75;59.94;97943.56;4965985;28;20782;-69
2023/02/08 06:56:44;;;;;;;26.57;15.37;;;;;;;-3.25;58.25;97947.06;4965198;28;20333;-68
2023/02/08 06:59:09;;;;;;;24.97;14.30;;;;;;;-2.79;55.73;97940.91;4966798;28;20220;-68
2023/02/08 07:01:35;;;;;;;22.60;13.73;;;;;;;-2.20;53.57;97933.38;4966184;28;20189;-69
2023/02/08 07:04:00;;;;;;;21.23;14.37;;;;;;;-1.97;52.74;97931.50;4965646;28;20556;-67
2023/02/08 07:06:26;;;;;;;20.47;13.27;;;;;;;-2.04;53.70;97943.31;4967180;28;21104;-68
2023/02/08 07:08:51;;;;;;;25.87;14.33;;;;;;;-1.37;51.11;97938.34;4963419;28;20282;-67
2023/02/08 07:11:19;;;;;;;22.67;14.33;;;;;;;-1.27;50.16;97940.38;4965598;28;20236;-69
2023/02/08 07:13:49;;;;;;;25.20;13.90;;;;;;;-0.06;47.88;97927.03;4965345;28;20185;-69
2023/02/08 07:16:16;;;;;;;24.37;14.67;;;;;;;-0.63;48.49;97930.88;4962142;28;20465;-67
2023/02/08 07:18:41;;;;;;;24.43;15.67;;;;;;;0.25;46.53;97923.41;4961857;28;21215;-67
2023/02/08 07:21:07;;;;;;;20.40;13.70;;;;;;;-0.25;47.34;97929.19;4967347;28;20440;-68
2023/02/08 07:23:32;;;;;;;22.00;14.77;;;;;;;0.20;45.87;97925.03;4965386;28;20178;-69
2023/02/08 07:26:00;;;;;;;22.97;16.33;;;;;;;0.41;46.03;97924.63;4966666;28;20184;-69
2023/02/08 07:28:26;;;;;;;22.90;15.03;;;;;;;1.04;43.57;97929.28;4966056;28;20260;-69
2023/02/08 07:30:51;;;;;;;22.07;15.90;;;;;;;1.19;43.56;97928.69;4971154;28;20438;-69
2023/02/08 07:33:17;;;;;;;23.37;15.80;;;;;;;0.61;44.76;97933.66;4974008;28;20919;-68
2023/02/08 07:35:42;;;;;;;25.00;15.80;;;;;;;1.74;42.60;97925.25;4975145;28;20244;-68
2023/02/08 07:38:08;;;;;;;21.53;15.00;;;;;;;2.01;41.40;97937.72;4974057;28;20296;-69
2023/02/08 07:40:34;;;;;;;34.37;16.90;;;;;;;1.89;41.72;97922.88;4983029;28;20173;-68
2023/02/08 07:42:59;;;;;;;23.90;15.90;;;;;;;1.75;41.45;97938.22;4976674;28;20420;-68
2023/02/08 07:45:25;;;;;;;22.07;16.10;;;;;;;2.07;40.77;97930.94;4968535;28;20220;-69
2023/02/08 07:47:50;;;;;;;28.97;16.80;;;;;;;2.28;41.05;97938.13;4967657;28;20209;-68
2023/02/08 07:50:16;;;;;;;19.30;14.73;;;;;;;2.93;39.09;97936.34;4966281;28;20185;-68
2023/02/08 07:52:44;;;;;;;22.27;16.50;;;;;;;2.32;39.54;97954.59;4967518;28;20181;-68
2023/02/08 07:55:15;;;;;;;30.23;15.23;;;;;;;3.07;38.87;97929.56;4966898;28;20288;-68
2023/02/08 07:57:45;;;;;;;25.30;14.97;;;;;;;2.14;40.64;97957.78;4963732;28;20447;-69
2023/02/08 08:00:11;;;;;;;25.73;15.97;;;;;;;2.43;40.64;97944.34;4966407;28;20519;-68
2023/02/08 08:02:37;;;;;;;27.27;16.43;;;;;;;2.69;40.75;97950.75;4967641;28;20433;-68
2023/02/08 08:05:02;;;;;;;23.47;16.27;;;;;;;3.08;38.77;97940.81;4965640;28;20495;-68
2023/02/08 08:07:28;;;;;;;26.23;15.70;;;;;;;3.44;38.49;97944.63;4967227;28;20197;-68
2023/02/08 08:09:53;;;;;;;30.33;17.63;;;;;;;3.51;38.41;97942.09;4967048;28;20263;-68
2023/02/08 08:12:18;;;;;;;23.60;15.80;;;;;;;3.21;38.30;97949.56;4964222;28;20206;-67
2023/02/08 08:14:44;;;;;;;25.73;16.97;;;;;;;2.95;39.56;97935.50;4967333;28;20174;-68
2023/02/08 08:17:09;;;;;;;26.23;16.87;;;;;;;3.92;36.71;97946.75;4967666;28;20229;-68
2023/02/08 08:19:35;;;;;;;22.30;16.00;;;;;;;3.73;37.01;97932.75;4965145;28;20212;-68
2023/02/08 08:22:00;;;;;;;29.63;16.60;;;;;;;4.55;35.52;97935.84;4967311;28;20236;-69
2023/02/08 08:24:26;;;;;;;23.00;16.20;;;;;;;5.25;34.78;97940.44;4967373;28;20174;-68
2023/02/08 08:26:54;;;;;;;22.60;16.97;;;;;;;3.68;36.63;97931.84;4966650;28;20177;-69
2023/02/08 08:29:20;;;;;;;24.87;17.40;;;;;;;3.13;38.34;97940.00;4963085;28;20189;-68
2023/02/08 08:31:45;;;;;;;26.33;17.50;;;;;;;3.22;38.46;97943.56;4966125;28;20440;-68
2023/02/08 08:34:10;;;;;;;22.97;16.97;;;;;;;4.03;36.91;97937.28;4966955;28;20185;-68
2023/02/08 08:36:36;;;;;;;25.53;16.17;;;;;;;3.66;37.46;97945.66;4965736;28;20237;-69
2023/02/08 08:39:02;;;;;;;30.00;17.50;;;;;;;2.12;40.27;97942.22;4964516;28;20189;-68
2023/02/08 08:41:27;;;;;;;25.07;15.87;;;;;;;2.65;40.27;97940.34;4965246;28;20185;-67
2023/02/08 08:43:53;;;;;;;25.83;15.90;;;;;;;2.73;39.17;97933.50;4964955;28;20208;-68
2023/02/08 08:46:18;;;;;;;31.33;16.80;;;;;;;3.01;40.05;97932.09;4966470;28;20181;-68
2023/02/08 08:48:45;;;;;;;28.17;15.97;;;;;;;3.53;38.30;97924.81;4966522;28;20206;-68
2023/02/08 08:51:10;;;;;;;24.63;16.50;;;;;;;3.65;37.90;97933.56;4967272;28;20626;-70
2023/02/08 08:53:36;;;;;;;29.83;16.97;;;;;;;2.29;40.55;97941.59;4967026;28;20443;-69
2023/02/08 08:56:02;;;;;;;25.53;16.40;;;;;;;2.65;40.49;97936.00;4964641;28;22019;-70
2023/02/08 08:58:28;;;;;;;28.87;17.53;;;;;;;4.20;37.89;97926.13;4967062;28;20213;-68
2023/02/08 09:00:59;;;;;;;26.90;16.20;;;;;;;3.92;37.01;97920.78;4964634;28;20967;-69
2023/02/08 09:03:25;;;;;;;22.00;15.70;;;;;;;2.41;39.50;97936.59;4963950;28;20181;-68
2023/02/08 09:05:51;;;;;;;23.30;15.70;;;;;;;1.52;42.91;97942.16;4966584;28;20436;-69
2023/02/08 09:08:16;;;;;;;25.37;16.40;;;;;;;1.11;44.30;97938.03;4965448;28;20468;-69
2023/02/08 09:10:42;;;;;;;25.47;16.57;;;;;;;2.00;42.66;97920.47;4965882;28;20873;-69
2023/02/08 09:13:08;;;;;;;24.90;17.63;;;;;;;2.67;41.42;97916.19;4966418;28;20200;-68
2023/02/08 09:15:37;;;;;;;26.83;16.50;;;;;;;2.67;41.40;97920.47;4965742;28;20213;-68
2023/02/08 09:18:02;;;;;;;19.97;14.70;;;;;;;2.74;41.04;97927.47;4966952;28;20464;-69
2023/02/08 09:20:27;;;;;;;20.57;15.20;;;;;;;2.39;41.55;97919.28;4966213;28;20471;-69
2023/02/08 09:22:53;;;;;;;28.10;17.73;;;;;;;2.57;41.29;97922.06;4966156;28;20323;-70
2023/02/08 09:25:18;;;;;;;26.00;15.60;;;;;;;1.93;42.14;97927.28;4966004;28;20636;-69
2023/02/08 09:27:44;;;;;;;24.80;16.10;;;;;;;2.08;41.85;97922.31;4965272;28;20209;-69
2023/02/08 09:30:10;;;;;;;26.20;17.83;;;;;;;1.00;45.16;97931.78;4962824;28;20535;-68
2023/02/08 09:32:38;;;;;;;23.60;17.07;;;;;;;0.73;45.88;97929.53;4948902;29;20656;-69
2023/02/08 09:35:04;;;;;;;25.63;16.83;;;;;;;1.58;44.93;97921.56;4959538;28;20268;-69
2023/02/08 09:37:30;;;;;;;28.20;16.43;;;;;;;1.78;43.43;97927.06;4965774;28;20476;-70
2023/02/08 09:39:57;;;;;;;23.57;16.13;;;;;;;2.86;41.34;97922.44;4963322;28;20440;-70
2023/02/08 09:42:27;;;;;;;22.40;17.30;;;;;;;3.00;41.75;97914.81;4963915;28;20295;-70
2023/02/08 09:44:56;;;;;;;22.17;16.80;;;;;;;2.87;42.05;97915.53;4966027;28;20507;-70
2023/02/08 09:47:33;;;;;;;31.73;16.27;;;;;;;2.69;42.15;97922.25;4964988;28;20562;-70
2023/02/08 09:50:20;;;;;;;25.60;14.17;;;;;;;0.23;46.52;97922.50;4960445;28;20444;-69
2023/02/08 09:52:57;;;;;;;20.80;14.80;;;;;;;-0.69;50.28;97923.84;4962687;28;20432;-69
2023/02/08 09:55:52;;;;;;;26.40;15.40;;;;;;;-0.86;51.85;97935.44;4967511;28;20472;-71
2023/02/08 09:58:25;;;;;;;23.73;14.67;;;;;;;-1.41;52.64;97924.53;4967897;28;20471;-71
2023/02/08 10:00:52;;;;;;;26.03;14.77;;;;;;;-0.31;50.94;97929.03;4964611;28;20944;-71
2023/02/08 10:03:40;;;;;;;27.67;16.03;;;;;;;-0.56;50.72;97917.28;4969157;28;20451;-70
2023/02/08 10:06:11;;;;;;;26.50;17.10;;;;;;;-1.11;53.36;97931.34;4967881;28;20431;-72
2023/02/08 10:08:38;;;;;;;23.47;16.20;;;;;;;-0.46;51.82;97921.81;4968376;28;20463;-69
2023/02/08 10:11:22;;;;;;;21.70;15.10;;;;;;;-0.22;51.85;97921.53;4969063;28;20444;-71
2023/02/08 10:14:08;;;;;;;32.70;15.43;;;;;;;0.40;49.51;97926.31;4968711;28;20444;-71
2023/02/08 10:16:52;;;;;;;26.60;16.37;;;;;;;0.13;50.14;97931.75;4967245;28;20464;-70
2023/02/08 10:19:35;;;;;;;23.97;14.53;;;;;;;-0.32;50.29;97923.88;4965435;28;20440;-69
2023/02/08 10:22:23;;;;;;;23.13;14.13;;;;;;;0.10;50.43;97926.53;4967698;28;20599;-70
2023/02/08 10:25:00;;;;;;;26.23;14.67;;;;;;;0.27;48.97;97923.44;4962382;28;20440;-71
2023/02/08 10:27:51;;;;;;;31.30;15.73;;;;;;;-0.02;50.84;97926.28;4968566;28;20460;-68
2023/02/08 10:30:31;;;;;;;22.60;14.83;;;;;;;-0.06;51.11;97916.72;4966140;28;21306;-73
2023/02/08 10:33:00;;;;;;;27.70;16.40;;;;;;;0.38;49.97;97916.81;4968769;28;20479;-71
2023/02/08 10:35:25;;;;;;;23.70;15.30;;;;;;;0.53;49.69;97913.66;4967947;28;20863;-70
2023/02/08 10:37:51;;;;;;;28.20;15.07;;;;;;;-0.17;51.27;97908.72;4968557;28;20495;-70
2023/02/08 10:40:38;;;;;;;22.37;15.87;;;;;;;-0.04;51.69;97915.03;4969133;28;20213;-69
2023/02/08 10:43:41;;;;;;;26.73;15.17;;;;;;;0.71;49.96;97900.22;4966321;28;20451;-69
2023/02/08 10:46:36;;;;;;;22.80;16.07;;;;;;;0.99;49.35;97894.72;4944379;28;20520;-72
2023/02/08 10:49:39;;;;;;;26.43;16.00;;;;;;;1.50;48.81;97884.34;4966684;28;20868;-71
2023/02/08 10:52:05;;;;;;;29.23;16.53;;;;;;;1.61;46.67;97885.41;4964943;28;20527;-70
2023/02/08 10:54:32;;;;;;;23.37;16.03;;;;;;;0.74;49.23;97895.97;4969083;28;21014;-70
2023/02/08 10:57:03;;;;;;;27.70;18.43;;;;;;;0.55;49.97;97879.25;4968134;28;20206;-69
2023/02/08 10:59:41;;;;;;;29.53;17.27;;;;;;;0.75;49.96;97881.34;4968941;28;20471;-70
2023/02/08 11:02:21;;;;;;;25.20;15.27;;;;;;;0.74;50.07;97897.69;4963969;28;20449;-72
2023/02/08 11:05:03;;;;;;;27.50;17.87;;;;;;;1.34;48.79;97880.66;4967343;28;20437;-70
2023/02/08 11:07:30;;;;;;;23.90;15.87;;;;;;;1.85;47.76;97887.47;4968642;28;20511;-69
2023/02/08 11:10:17;;;;;;;30.27;17.93;;;;;;;2.00;47.08;97879.03;4968236;28;20437;-72
2023/02/08 11:13:04;;;;;;;30.23;17.70;;;;;;;1.46;47.54;97878.25;4963553;28;20468;-70
2023/02/08 11:15:38;;;;;;;27.20;17.90;;;;;;;1.17;49.43;97870.91;4966103;28;20469;-69
2023/02/08 11:18:06;;;;;;;24.73;15.90;;;;;;;1.40;48.87;97871.28;4967775;28;20456;-69
2023/02/08 11:20:38;;;;;;;29.80;17.20;;;;;;;0.23;50.94;97872.59;4968296;28;20448;-70
2023/02/08 11:23:16;;;;;;;25.73;16.83;;;;;;;0.65;51.10;97869.09;4966739;28;20524;-69
2023/02/08 11:25:41;;;;;;;23.07;15.27;;;;;;;0.14;52.30;97876.72;4968067;28;21263;-71
2023/02/08 11:28:23;;;;;;;24.73;16.07;;;;;;;-0.08;52.76;97874.53;4967990;28;20468;-70
2023/02/08 11:31:00;;;;;;;26.30;17.10;;;;;;;0.23;52.17;97865.72;4966844;28;20181;-70
2023/02/08 11:33:26;;;;;;;25.60;16.57;;;;;;;0.14;52.82;97863.84;4966754;28;20433;-67
2023/02/08 11:35:59;;;;;;;26.83;16.60;;;;;;;-0.01;53.32;97866.06;4968280;28;20473;-69